sensor_id;sensor_type;location;lat;lon;timestamp;P1;durP1;ratioP1;P2;durP2;ratioP2
25609;SDS011;13479;49.044;8.716;2022-08-11T00:01:22;1.40;;;1.20;;
25609;SDS011;13479;49.044;8.716;2022-08-11T00:03:54;4.07;;;1.50;;
25609;SDS011;13479;49.044;8.716;2022-08-11T00:06:22;3.60;;;1.50;;
25609;SDS011;13479;49.044;8.716;2022-08-11T00:08:50;8.30;;;1.50;;
25609;SDS011;13479;49.044;8.716;2022-08-11T00:11:16;2.42;;;1.40;;
25609;SDS011;13479;49.044;8.716;2022-08-11T00:13:44;2.70;;;1.70;;
25609;SDS011;13479;49.044;8.716;2022-08-11T00:16:12;2.95;;;1.40;;
25609;SDS011;13479;49.044;8.716;2022-08-11T00:18:41;4.68;;;1.30;;
25609;SDS011;13479;49.044;8.716;2022-08-11T00:21:09;2.08;;;1.48;;
25609;SDS011;13479;49.044;8.716;2022-08-11T00:23:43;3.08;;;1.40;;
25609;SDS011;13479;49.044;8.716;2022-08-11T00:26:17;4.57;;;1.63;;
25609;SDS011;13479;49.044;8.716;2022-08-11T00:28:43;3.50;;;1.40;;
25609;SDS011;13479;49.044;8.716;2022-08-11T00:33:55;5.32;;;1.50;;
25609;SDS011;13479;49.044;8.716;2022-08-11T00:36:25;8.68;;;1.92;;
25609;SDS011;13479;49.044;8.716;2022-08-11T00:38:53;2.58;;;1.40;;
25609;SDS011;13479;49.044;8.716;2022-08-11T00:47:26;4.35;;;1.90;;
25609;SDS011;13479;49.044;8.716;2022-08-11T00:50:16;2.85;;;1.50;;
25609;SDS011;13479;49.044;8.716;2022-08-11T00:53:04;3.28;;;1.33;;
25609;SDS011;13479;49.044;8.716;2022-08-11T00:55:52;2.92;;;1.83;;
25609;SDS011;13479;49.044;8.716;2022-08-11T00:58:42;5.28;;;1.77;;
25609;SDS011;13479;49.044;8.716;2022-08-11T01:01:33;6.63;;;1.90;;
25609;SDS011;13479;49.044;8.716;2022-08-11T01:15:51;4.63;;;1.70;;
25609;SDS011;13479;49.044;8.716;2022-08-11T01:24:18;3.08;;;1.52;;
25609;SDS011;13479;49.044;8.716;2022-08-11T01:27:31;3.63;;;1.48;;
25609;SDS011;13479;49.044;8.716;2022-08-11T01:33:30;5.28;;;1.52;;
25609;SDS011;13479;49.044;8.716;2022-08-11T01:45:31;3.28;;;1.50;;
25609;SDS011;13479;49.044;8.716;2022-08-11T01:54:00;2.95;;;1.30;;
25609;SDS011;13479;49.044;8.716;2022-08-11T01:56:41;7.32;;;1.65;;
25609;SDS011;13479;49.044;8.716;2022-08-11T01:59:31;5.03;;;1.80;;
25609;SDS011;13479;49.044;8.716;2022-08-11T02:02:10;4.13;;;1.50;;
25609;SDS011;13479;49.044;8.716;2022-08-11T02:07:38;4.95;;;1.88;;
25609;SDS011;13479;49.044;8.716;2022-08-11T02:10:26;3.28;;;1.70;;
25609;SDS011;13479;49.044;8.716;2022-08-11T02:13:30;3.80;;;1.67;;
25609;SDS011;13479;49.044;8.716;2022-08-11T02:18:38;4.30;;;1.80;;
25609;SDS011;13479;49.044;8.716;2022-08-11T02:21:28;4.22;;;1.70;;
25609;SDS011;13479;49.044;8.716;2022-08-11T02:24:22;3.95;;;1.83;;
25609;SDS011;13479;49.044;8.716;2022-08-11T02:26:55;5.65;;;1.73;;
25609;SDS011;13479;49.044;8.716;2022-08-11T02:29:33;2.90;;;1.70;;
25609;SDS011;13479;49.044;8.716;2022-08-11T02:40:42;3.78;;;1.70;;
25609;SDS011;13479;49.044;8.716;2022-08-11T02:43:20;6.63;;;1.80;;
25609;SDS011;13479;49.044;8.716;2022-08-11T02:46:26;4.82;;;1.70;;
25609;SDS011;13479;49.044;8.716;2022-08-11T02:48:59;5.05;;;1.80;;
25609;SDS011;13479;49.044;8.716;2022-08-11T02:52:03;2.25;;;1.45;;
25609;SDS011;13479;49.044;8.716;2022-08-11T02:54:42;4.75;;;1.63;;
25609;SDS011;13479;49.044;8.716;2022-08-11T02:57:20;3.17;;;1.70;;
25609;SDS011;13479;49.044;8.716;2022-08-11T03:02:39;3.17;;;1.73;;
25609;SDS011;13479;49.044;8.716;2022-08-11T03:08:28;4.13;;;1.90;;
25609;SDS011;13479;49.044;8.716;2022-08-11T03:11:11;6.40;;;1.58;;
25609;SDS011;13479;49.044;8.716;2022-08-11T03:17:08;3.25;;;1.75;;
25609;SDS011;13479;49.044;8.716;2022-08-11T03:22:39;4.70;;;2.10;;
25609;SDS011;13479;49.044;8.716;2022-08-11T03:25:23;3.70;;;1.92;;
25609;SDS011;13479;49.044;8.716;2022-08-11T03:33:18;2.80;;;1.50;;
25609;SDS011;13479;49.044;8.716;2022-08-11T03:36:09;6.60;;;1.90;;
25609;SDS011;13479;49.044;8.716;2022-08-11T03:38:53;2.58;;;2.03;;
25609;SDS011;13479;49.044;8.716;2022-08-11T03:55:52;3.47;;;1.60;;
25609;SDS011;13479;49.044;8.716;2022-08-11T04:01:25;2.88;;;1.80;;
25609;SDS011;13479;49.044;8.716;2022-08-11T04:12:38;4.47;;;1.75;;
25609;SDS011;13479;49.044;8.716;2022-08-11T04:21:35;8.57;;;1.90;;
25609;SDS011;13479;49.044;8.716;2022-08-11T04:24:24;2.58;;;1.80;;
25609;SDS011;13479;49.044;8.716;2022-08-11T04:27:06;5.32;;;2.05;;
25609;SDS011;13479;49.044;8.716;2022-08-11T04:30:07;5.03;;;1.88;;
25609;SDS011;13479;49.044;8.716;2022-08-11T04:35:30;5.15;;;1.98;;
25609;SDS011;13479;49.044;8.716;2022-08-11T04:41:13;4.78;;;1.90;;
25609;SDS011;13479;49.044;8.716;2022-08-11T04:46:42;5.22;;;1.92;;
25609;SDS011;13479;49.044;8.716;2022-08-11T04:56:22;4.97;;;1.95;;
25609;SDS011;13479;49.044;8.716;2022-08-11T05:02:14;5.28;;;2.10;;
25609;SDS011;13479;49.044;8.716;2022-08-11T05:05:08;4.53;;;1.83;;
25609;SDS011;13479;49.044;8.716;2022-08-11T05:08:01;5.50;;;2.00;;
25609;SDS011;13479;49.044;8.716;2022-08-11T05:14:00;7.20;;;2.08;;
25609;SDS011;13479;49.044;8.716;2022-08-11T05:16:56;5.05;;;1.90;;
25609;SDS011;13479;49.044;8.716;2022-08-11T05:19:46;3.63;;;1.95;;
25609;SDS011;13479;49.044;8.716;2022-08-11T05:22:31;4.03;;;2.03;;
25609;SDS011;13479;49.044;8.716;2022-08-11T05:25:27;6.03;;;2.00;;
25609;SDS011;13479;49.044;8.716;2022-08-11T05:28:27;6.65;;;1.90;;
25609;SDS011;13479;49.044;8.716;2022-08-11T05:31:14;4.20;;;2.05;;
25609;SDS011;13479;49.044;8.716;2022-08-11T05:34:08;4.63;;;1.95;;
25609;SDS011;13479;49.044;8.716;2022-08-11T05:37:05;3.28;;;1.95;;
25609;SDS011;13479;49.044;8.716;2022-08-11T05:39:39;4.50;;;2.00;;
25609;SDS011;13479;49.044;8.716;2022-08-11T05:42:27;3.72;;;1.67;;
25609;SDS011;13479;49.044;8.716;2022-08-11T05:45:14;4.13;;;1.73;;
25609;SDS011;13479;49.044;8.716;2022-08-11T05:47:59;5.03;;;1.60;;
25609;SDS011;13479;49.044;8.716;2022-08-11T05:50:51;5.40;;;1.92;;
25609;SDS011;13479;49.044;8.716;2022-08-11T05:53:44;3.65;;;1.60;;
25609;SDS011;13479;49.044;8.716;2022-08-11T05:56:32;3.78;;;1.63;;
25609;SDS011;13479;49.044;8.716;2022-08-11T05:58:59;3.25;;;1.83;;
25609;SDS011;13479;49.044;8.716;2022-08-11T06:01:29;4.60;;;1.83;;
25609;SDS011;13479;49.044;8.716;2022-08-11T06:03:56;4.30;;;2.03;;
25609;SDS011;13479;49.044;8.716;2022-08-11T06:06:38;3.35;;;2.00;;
25609;SDS011;13479;49.044;8.716;2022-08-11T06:09:10;3.92;;;1.77;;
25609;SDS011;13479;49.044;8.716;2022-08-11T06:11:38;4.82;;;2.00;;
25609;SDS011;13479;49.044;8.716;2022-08-11T06:14:06;5.68;;;2.00;;
25609;SDS011;13479;49.044;8.716;2022-08-11T06:16:34;4.05;;;2.10;;
25609;SDS011;13479;49.044;8.716;2022-08-11T06:19:02;3.95;;;1.83;;
25609;SDS011;13479;49.044;8.716;2022-08-11T06:21:32;5.20;;;2.13;;
25609;SDS011;13479;49.044;8.716;2022-08-11T06:23:58;5.63;;;1.98;;
25609;SDS011;13479;49.044;8.716;2022-08-11T06:26:24;6.75;;;2.10;;
25609;SDS011;13479;49.044;8.716;2022-08-11T06:28:50;8.00;;;2.28;;
25609;SDS011;13479;49.044;8.716;2022-08-11T06:31:17;3.65;;;1.90;;
25609;SDS011;13479;49.044;8.716;2022-08-11T06:36:15;4.93;;;2.28;;
25609;SDS011;13479;49.044;8.716;2022-08-11T06:41:57;7.82;;;1.98;;
25609;SDS011;13479;49.044;8.716;2022-08-11T06:47:31;5.68;;;2.22;;
25609;SDS011;13479;49.044;8.716;2022-08-11T06:49:57;6.28;;;2.15;;
25609;SDS011;13479;49.044;8.716;2022-08-11T06:52:42;3.60;;;2.00;;
25609;SDS011;13479;49.044;8.716;2022-08-11T06:55:20;6.30;;;2.25;;
25609;SDS011;13479;49.044;8.716;2022-08-11T06:58:05;6.75;;;2.10;;
25609;SDS011;13479;49.044;8.716;2022-08-11T07:01:00;3.05;;;1.60;;
25609;SDS011;13479;49.044;8.716;2022-08-11T07:03:33;9.95;;;1.90;;
25609;SDS011;13479;49.044;8.716;2022-08-11T07:06:27;4.55;;;1.75;;
25609;SDS011;13479;49.044;8.716;2022-08-11T07:15:17;7.63;;;2.20;;
25609;SDS011;13479;49.044;8.716;2022-08-11T07:18:02;5.97;;;2.13;;
25609;SDS011;13479;49.044;8.716;2022-08-11T07:20:49;4.95;;;1.95;;
25609;SDS011;13479;49.044;8.716;2022-08-11T07:23:35;2.67;;;1.98;;
25609;SDS011;13479;49.044;8.716;2022-08-11T07:26:20;5.95;;;1.95;;
25609;SDS011;13479;49.044;8.716;2022-08-11T07:29:09;3.10;;;1.80;;
25609;SDS011;13479;49.044;8.716;2022-08-11T07:31:37;3.38;;;1.80;;
25609;SDS011;13479;49.044;8.716;2022-08-11T07:34:11;4.82;;;1.90;;
25609;SDS011;13479;49.044;8.716;2022-08-11T07:36:46;4.65;;;2.10;;
25609;SDS011;13479;49.044;8.716;2022-08-11T07:39:25;6.13;;;1.98;;
25609;SDS011;13479;49.044;8.716;2022-08-11T07:41:53;6.82;;;1.90;;
25609;SDS011;13479;49.044;8.716;2022-08-11T07:44:21;2.40;;;1.50;;
25609;SDS011;13479;49.044;8.716;2022-08-11T07:46:50;4.32;;;2.13;;
25609;SDS011;13479;49.044;8.716;2022-08-11T07:49:36;5.07;;;1.83;;
25609;SDS011;13479;49.044;8.716;2022-08-11T07:52:22;5.70;;;1.80;;
25609;SDS011;13479;49.044;8.716;2022-08-11T07:55:29;4.47;;;2.00;;
25609;SDS011;13479;49.044;8.716;2022-08-11T07:57:55;8.10;;;1.98;;
25609;SDS011;13479;49.044;8.716;2022-08-11T08:00:43;4.60;;;2.03;;
25609;SDS011;13479;49.044;8.716;2022-08-11T08:03:29;4.50;;;2.08;;
25609;SDS011;13479;49.044;8.716;2022-08-11T08:06:15;5.03;;;2.00;;
25609;SDS011;13479;49.044;8.716;2022-08-11T08:08:59;1.92;;;1.60;;
25609;SDS011;13479;49.044;8.716;2022-08-11T08:11:45;3.33;;;1.60;;
25609;SDS011;13479;49.044;8.716;2022-08-11T08:14:29;7.72;;;1.73;;
25609;SDS011;13479;49.044;8.716;2022-08-11T08:17:14;2.63;;;1.70;;
25609;SDS011;13479;49.044;8.716;2022-08-11T08:19:59;2.58;;;1.70;;
25609;SDS011;13479;49.044;8.716;2022-08-11T08:22:24;4.03;;;1.80;;
25609;SDS011;13479;49.044;8.716;2022-08-11T08:24:51;5.60;;;1.75;;
25609;SDS011;13479;49.044;8.716;2022-08-11T08:27:18;3.90;;;1.60;;
25609;SDS011;13479;49.044;8.716;2022-08-11T08:29:45;6.43;;;1.67;;
25609;SDS011;13479;49.044;8.716;2022-08-11T08:32:30;2.17;;;1.50;;
25609;SDS011;13479;49.044;8.716;2022-08-11T08:34:56;4.47;;;1.70;;
25609;SDS011;13479;49.044;8.716;2022-08-11T08:37:23;2.97;;;1.77;;
25609;SDS011;13479;49.044;8.716;2022-08-11T08:39:51;5.50;;;2.08;;
25609;SDS011;13479;49.044;8.716;2022-08-11T08:42:17;4.22;;;1.70;;
25609;SDS011;13479;49.044;8.716;2022-08-11T08:44:50;1.80;;;1.42;;
25609;SDS011;13479;49.044;8.716;2022-08-11T08:47:23;5.32;;;1.80;;
25609;SDS011;13479;49.044;8.716;2022-08-11T08:49:52;2.47;;;1.63;;
25609;SDS011;13479;49.044;8.716;2022-08-11T08:52:24;5.07;;;1.73;;
25609;SDS011;13479;49.044;8.716;2022-08-11T08:54:55;3.55;;;1.60;;
25609;SDS011;13479;49.044;8.716;2022-08-11T08:57:26;6.00;;;2.33;;
25609;SDS011;13479;49.044;8.716;2022-08-11T08:59:53;4.03;;;1.90;;
25609;SDS011;13479;49.044;8.716;2022-08-11T09:02:22;4.30;;;1.80;;
25609;SDS011;13479;49.044;8.716;2022-08-11T09:04:50;3.50;;;1.33;;
25609;SDS011;13479;49.044;8.716;2022-08-11T09:07:16;7.10;;;1.90;;
25609;SDS011;13479;49.044;8.716;2022-08-11T09:09:52;3.08;;;1.88;;
25609;SDS011;13479;49.044;8.716;2022-08-11T09:12:20;4.15;;;1.90;;
25609;SDS011;13479;49.044;8.716;2022-08-11T09:14:50;4.45;;;1.80;;
25609;SDS011;13479;49.044;8.716;2022-08-11T09:17:28;4.05;;;1.90;;
25609;SDS011;13479;49.044;8.716;2022-08-11T09:19:56;8.73;;;2.00;;
25609;SDS011;13479;49.044;8.716;2022-08-11T09:22:32;3.35;;;1.88;;
25609;SDS011;13479;49.044;8.716;2022-08-11T09:25:19;2.47;;;1.73;;
25609;SDS011;13479;49.044;8.716;2022-08-11T09:28:06;3.22;;;1.80;;
25609;SDS011;13479;49.044;8.716;2022-08-11T09:30:34;4.47;;;1.70;;
25609;SDS011;13479;49.044;8.716;2022-08-11T09:33:01;3.35;;;1.50;;
25609;SDS011;13479;49.044;8.716;2022-08-11T09:35:29;4.30;;;1.80;;
25609;SDS011;13479;49.044;8.716;2022-08-11T09:37:58;4.10;;;1.65;;
25609;SDS011;13479;49.044;8.716;2022-08-11T09:40:44;2.78;;;1.65;;
25609;SDS011;13479;49.044;8.716;2022-08-11T09:43:11;3.03;;;1.20;;
25609;SDS011;13479;49.044;8.716;2022-08-11T09:45:57;7.00;;;1.70;;
25609;SDS011;13479;49.044;8.716;2022-08-11T09:48:25;3.30;;;1.58;;
25609;SDS011;13479;49.044;8.716;2022-08-11T09:50:53;2.92;;;1.52;;
25609;SDS011;13479;49.044;8.716;2022-08-11T09:53:20;2.70;;;1.70;;
25609;SDS011;13479;49.044;8.716;2022-08-11T09:55:48;3.70;;;1.70;;
25609;SDS011;13479;49.044;8.716;2022-08-11T09:58:14;3.25;;;1.75;;
25609;SDS011;13479;49.044;8.716;2022-08-11T10:00:42;4.95;;;1.20;;
25609;SDS011;13479;49.044;8.716;2022-08-11T10:03:11;4.65;;;1.38;;
25609;SDS011;13479;49.044;8.716;2022-08-11T10:05:39;7.22;;;1.42;;
25609;SDS011;13479;49.044;8.716;2022-08-11T10:08:29;2.88;;;1.50;;
25609;SDS011;13479;49.044;8.716;2022-08-11T10:10:57;2.95;;;1.38;;
25609;SDS011;13479;49.044;8.716;2022-08-11T10:13:25;2.33;;;1.45;;
25609;SDS011;13479;49.044;8.716;2022-08-11T10:16:01;3.05;;;1.30;;
25609;SDS011;13479;49.044;8.716;2022-08-11T10:18:40;2.58;;;1.20;;
25609;SDS011;13479;49.044;8.716;2022-08-11T10:21:23;2.22;;;1.38;;
25609;SDS011;13479;49.044;8.716;2022-08-11T10:23:52;4.53;;;1.23;;
25609;SDS011;13479;49.044;8.716;2022-08-11T10:26:37;2.92;;;1.30;;
25609;SDS011;13479;49.044;8.716;2022-08-11T10:29:18;3.33;;;1.33;;
25609;SDS011;13479;49.044;8.716;2022-08-11T10:32:04;2.92;;;1.00;;
25609;SDS011;13479;49.044;8.716;2022-08-11T10:34:49;4.85;;;1.42;;
25609;SDS011;13479;49.044;8.716;2022-08-11T10:37:16;5.47;;;1.35;;
25609;SDS011;13479;49.044;8.716;2022-08-11T10:39:44;6.53;;;1.30;;
25609;SDS011;13479;49.044;8.716;2022-08-11T10:42:10;2.30;;;1.38;;
25609;SDS011;13479;49.044;8.716;2022-08-11T10:44:56;3.42;;;1.20;;
25609;SDS011;13479;49.044;8.716;2022-08-11T10:47:22;2.55;;;1.40;;
25609;SDS011;13479;49.044;8.716;2022-08-11T10:50:11;3.95;;;1.40;;
25609;SDS011;13479;49.044;8.716;2022-08-11T10:52:56;2.38;;;1.08;;
25609;SDS011;13479;49.044;8.716;2022-08-11T10:55:43;1.55;;;1.10;;
25609;SDS011;13479;49.044;8.716;2022-08-11T10:58:28;2.42;;;1.20;;
25609;SDS011;13479;49.044;8.716;2022-08-11T11:01:14;1.98;;;1.20;;
25609;SDS011;13479;49.044;8.716;2022-08-11T11:03:40;2.05;;;1.30;;
25609;SDS011;13479;49.044;8.716;2022-08-11T11:06:08;2.55;;;1.48;;
25609;SDS011;13479;49.044;8.716;2022-08-11T11:08:49;2.28;;;1.30;;
25609;SDS011;13479;49.044;8.716;2022-08-11T11:11:37;2.90;;;1.15;;
25609;SDS011;13479;49.044;8.716;2022-08-11T11:14:27;2.95;;;1.10;;
25609;SDS011;13479;49.044;8.716;2022-08-11T11:17:13;4.05;;;1.35;;
25609;SDS011;13479;49.044;8.716;2022-08-11T11:19:45;5.13;;;1.30;;
25609;SDS011;13479;49.044;8.716;2022-08-11T11:22:13;2.03;;;1.17;;
25609;SDS011;13479;49.044;8.716;2022-08-11T11:30:40;2.63;;;1.15;;
25609;SDS011;13479;49.044;8.716;2022-08-11T11:39:09;6.68;;;1.50;;
25609;SDS011;13479;49.044;8.716;2022-08-11T11:41:35;2.03;;;1.10;;
25609;SDS011;13479;49.044;8.716;2022-08-11T11:44:01;2.35;;;1.23;;
25609;SDS011;13479;49.044;8.716;2022-08-11T11:46:27;3.67;;;1.25;;
25609;SDS011;13479;49.044;8.716;2022-08-11T11:48:54;1.40;;;1.08;;
25609;SDS011;13479;49.044;8.716;2022-08-11T11:51:21;2.70;;;1.30;;
25609;SDS011;13479;49.044;8.716;2022-08-11T11:53:47;4.88;;;1.35;;
25609;SDS011;13479;49.044;8.716;2022-08-11T11:56:13;2.95;;;1.30;;
25609;SDS011;13479;49.044;8.716;2022-08-11T11:58:40;1.45;;;1.10;;
25609;SDS011;13479;49.044;8.716;2022-08-11T12:01:25;1.70;;;1.23;;
25609;SDS011;13479;49.044;8.716;2022-08-11T12:03:52;2.08;;;1.15;;
25609;SDS011;13479;49.044;8.716;2022-08-11T12:06:20;1.50;;;1.30;;
25609;SDS011;13479;49.044;8.716;2022-08-11T12:08:48;1.75;;;1.10;;
25609;SDS011;13479;49.044;8.716;2022-08-11T12:11:15;3.45;;;0.85;;
25609;SDS011;13479;49.044;8.716;2022-08-11T12:14:03;3.22;;;1.20;;
25609;SDS011;13479;49.044;8.716;2022-08-11T12:16:31;3.92;;;1.33;;
25609;SDS011;13479;49.044;8.716;2022-08-11T12:18:59;2.55;;;1.25;;
25609;SDS011;13479;49.044;8.716;2022-08-11T12:21:29;5.05;;;1.20;;
25609;SDS011;13479;49.044;8.716;2022-08-11T12:23:55;4.30;;;1.35;;
25609;SDS011;13479;49.044;8.716;2022-08-11T12:26:40;3.15;;;1.48;;
25609;SDS011;13479;49.044;8.716;2022-08-11T12:29:19;2.70;;;1.00;;
25609;SDS011;13479;49.044;8.716;2022-08-11T12:31:51;6.45;;;1.42;;
25609;SDS011;13479;49.044;8.716;2022-08-11T12:34:18;2.42;;;1.25;;
25609;SDS011;13479;49.044;8.716;2022-08-11T12:36:48;1.80;;;1.30;;
25609;SDS011;13479;49.044;8.716;2022-08-11T12:39:20;2.13;;;1.20;;
25609;SDS011;13479;49.044;8.716;2022-08-11T12:42:10;2.20;;;1.20;;
25609;SDS011;13479;49.044;8.716;2022-08-11T12:44:58;5.45;;;1.17;;
25609;SDS011;13479;49.044;8.716;2022-08-11T12:47:46;2.42;;;1.20;;
25609;SDS011;13479;49.044;8.716;2022-08-11T12:50:33;1.70;;;1.00;;
25609;SDS011;13479;49.044;8.716;2022-08-11T12:53:19;4.82;;;1.50;;
25609;SDS011;13479;49.044;8.716;2022-08-11T12:55:48;2.38;;;1.27;;
25609;SDS011;13479;49.044;8.716;2022-08-11T12:58:35;2.13;;;1.10;;
25609;SDS011;13479;49.044;8.716;2022-08-11T13:01:04;2.72;;;1.20;;
25609;SDS011;13479;49.044;8.716;2022-08-11T13:03:49;2.03;;;1.17;;
25609;SDS011;13479;49.044;8.716;2022-08-11T13:06:32;2.08;;;1.30;;
25609;SDS011;13479;49.044;8.716;2022-08-11T13:08:58;2.95;;;1.38;;
25609;SDS011;13479;49.044;8.716;2022-08-11T13:11:24;2.88;;;1.30;;
25609;SDS011;13479;49.044;8.716;2022-08-11T13:14:09;2.15;;;1.10;;
25609;SDS011;13479;49.044;8.716;2022-08-11T13:16:36;4.05;;;1.30;;
25609;SDS011;13479;49.044;8.716;2022-08-11T13:19:21;2.30;;;1.20;;
25609;SDS011;13479;49.044;8.716;2022-08-11T13:21:48;4.05;;;1.20;;
25609;SDS011;13479;49.044;8.716;2022-08-11T13:24:14;4.18;;;1.10;;
25609;SDS011;13479;49.044;8.716;2022-08-11T13:26:42;2.47;;;1.30;;
25609;SDS011;13479;49.044;8.716;2022-08-11T13:29:08;4.57;;;1.42;;
25609;SDS011;13479;49.044;8.716;2022-08-11T13:31:34;2.95;;;1.05;;
25609;SDS011;13479;49.044;8.716;2022-08-11T13:34:00;5.93;;;1.20;;
25609;SDS011;13479;49.044;8.716;2022-08-11T13:36:27;2.22;;;1.17;;
25609;SDS011;13479;49.044;8.716;2022-08-11T13:38:53;4.82;;;1.17;;
25609;SDS011;13479;49.044;8.716;2022-08-11T13:41:22;2.80;;;1.05;;
25609;SDS011;13479;49.044;8.716;2022-08-11T13:44:03;1.48;;;1.30;;
25609;SDS011;13479;49.044;8.716;2022-08-11T13:46:30;2.25;;;1.27;;
25609;SDS011;13479;49.044;8.716;2022-08-11T13:48:57;2.08;;;1.25;;
25609;SDS011;13479;49.044;8.716;2022-08-11T13:51:24;5.88;;;1.50;;
25609;SDS011;13479;49.044;8.716;2022-08-11T13:54:03;3.35;;;1.20;;
25609;SDS011;13479;49.044;8.716;2022-08-11T13:56:29;2.75;;;1.40;;
25609;SDS011;13479;49.044;8.716;2022-08-11T13:58:56;1.88;;;1.20;;
25609;SDS011;13479;49.044;8.716;2022-08-11T14:01:27;3.03;;;1.25;;
25609;SDS011;13479;49.044;8.716;2022-08-11T14:04:05;1.90;;;1.02;;
25609;SDS011;13479;49.044;8.716;2022-08-11T14:06:34;1.40;;;1.17;;
25609;SDS011;13479;49.044;8.716;2022-08-11T14:09:02;3.15;;;1.10;;
25609;SDS011;13479;49.044;8.716;2022-08-11T14:11:32;4.80;;;1.30;;
25609;SDS011;13479;49.044;8.716;2022-08-11T14:14:21;7.38;;;1.25;;
25609;SDS011;13479;49.044;8.716;2022-08-11T14:16:49;2.33;;;1.30;;
25609;SDS011;13479;49.044;8.716;2022-08-11T14:19:17;1.75;;;1.15;;
25609;SDS011;13479;49.044;8.716;2022-08-11T14:21:46;3.50;;;1.20;;
25609;SDS011;13479;49.044;8.716;2022-08-11T14:24:35;2.30;;;1.70;;
25609;SDS011;13479;49.044;8.716;2022-08-11T14:27:04;2.22;;;1.10;;
25609;SDS011;13479;49.044;8.716;2022-08-11T14:29:31;1.88;;;1.10;;
25609;SDS011;13479;49.044;8.716;2022-08-11T14:32:02;2.05;;;1.20;;
25609;SDS011;13479;49.044;8.716;2022-08-11T14:34:30;3.55;;;1.17;;
25609;SDS011;13479;49.044;8.716;2022-08-11T14:37:02;3.20;;;1.40;;
25609;SDS011;13479;49.044;8.716;2022-08-11T14:39:50;5.15;;;1.27;;
25609;SDS011;13479;49.044;8.716;2022-08-11T14:42:18;3.72;;;1.35;;
25609;SDS011;13479;49.044;8.716;2022-08-11T14:45:04;2.85;;;1.30;;
25609;SDS011;13479;49.044;8.716;2022-08-11T14:47:50;1.75;;;1.38;;
25609;SDS011;13479;49.044;8.716;2022-08-11T14:50:22;4.45;;;1.70;;
25609;SDS011;13479;49.044;8.716;2022-08-11T14:53:07;5.03;;;1.98;;
25609;SDS011;13479;49.044;8.716;2022-08-11T14:55:37;4.78;;;1.50;;
25609;SDS011;13479;49.044;8.716;2022-08-11T14:58:24;1.52;;;0.88;;
25609;SDS011;13479;49.044;8.716;2022-08-11T15:00:52;2.05;;;1.23;;
25609;SDS011;13479;49.044;8.716;2022-08-11T15:03:20;2.72;;;1.35;;
25609;SDS011;13479;49.044;8.716;2022-08-11T15:05:52;4.93;;;1.20;;
25609;SDS011;13479;49.044;8.716;2022-08-11T15:08:20;4.32;;;1.00;;
25609;SDS011;13479;49.044;8.716;2022-08-11T15:11:07;2.92;;;1.30;;
25609;SDS011;13479;49.044;8.716;2022-08-11T15:13:54;1.63;;;1.10;;
25609;SDS011;13479;49.044;8.716;2022-08-11T15:16:21;4.32;;;1.30;;
25609;SDS011;13479;49.044;8.716;2022-08-11T15:19:07;4.88;;;1.30;;
25609;SDS011;13479;49.044;8.716;2022-08-11T15:21:33;2.38;;;1.20;;
25609;SDS011;13479;49.044;8.716;2022-08-11T15:24:17;2.13;;;1.40;;
25609;SDS011;13479;49.044;8.716;2022-08-11T15:26:43;3.33;;;1.30;;
25609;SDS011;13479;49.044;8.716;2022-08-11T15:29:28;2.97;;;1.20;;
25609;SDS011;13479;49.044;8.716;2022-08-11T15:32:14;3.47;;;1.42;;
25609;SDS011;13479;49.044;8.716;2022-08-11T15:34:50;2.35;;;1.17;;
25609;SDS011;13479;49.044;8.716;2022-08-11T15:37:39;1.80;;;1.20;;
25609;SDS011;13479;49.044;8.716;2022-08-11T15:40:11;1.67;;;1.10;;
25609;SDS011;13479;49.044;8.716;2022-08-11T15:43:09;2.30;;;1.15;;
25609;SDS011;13479;49.044;8.716;2022-08-11T15:45:57;4.07;;;1.30;;
25609;SDS011;13479;49.044;8.716;2022-08-11T15:51:17;2.95;;;1.30;;
25609;SDS011;13479;49.044;8.716;2022-08-11T15:53:52;3.00;;;1.30;;
25609;SDS011;13479;49.044;8.716;2022-08-11T15:56:24;2.97;;;1.30;;
25609;SDS011;13479;49.044;8.716;2022-08-11T15:58:52;2.40;;;1.35;;
25609;SDS011;13479;49.044;8.716;2022-08-11T16:01:39;1.83;;;1.20;;
25609;SDS011;13479;49.044;8.716;2022-08-11T16:04:27;2.35;;;1.40;;
25609;SDS011;13479;49.044;8.716;2022-08-11T16:07:02;3.08;;;1.10;;
25609;SDS011;13479;49.044;8.716;2022-08-11T16:09:43;3.58;;;1.40;;
25609;SDS011;13479;49.044;8.716;2022-08-11T16:12:16;2.70;;;1.30;;
25609;SDS011;13479;49.044;8.716;2022-08-11T16:14:47;2.75;;;1.17;;
25609;SDS011;13479;49.044;8.716;2022-08-11T16:17:36;2.35;;;1.35;;
25609;SDS011;13479;49.044;8.716;2022-08-11T16:20:05;2.58;;;1.27;;
25609;SDS011;13479;49.044;8.716;2022-08-11T16:22:32;3.20;;;1.13;;
25609;SDS011;13479;49.044;8.716;2022-08-11T16:25:07;1.80;;;1.10;;
25609;SDS011;13479;49.044;8.716;2022-08-11T16:27:35;3.88;;;1.20;;
25609;SDS011;13479;49.044;8.716;2022-08-11T16:30:04;2.13;;;1.10;;
25609;SDS011;13479;49.044;8.716;2022-08-11T16:32:30;2.03;;;1.20;;
25609;SDS011;13479;49.044;8.716;2022-08-11T16:35:00;2.22;;;1.17;;
25609;SDS011;13479;49.044;8.716;2022-08-11T16:37:48;1.70;;;1.10;;
25609;SDS011;13479;49.044;8.716;2022-08-11T16:40:34;2.10;;;1.30;;
25609;SDS011;13479;49.044;8.716;2022-08-11T16:43:02;5.13;;;1.20;;
25609;SDS011;13479;49.044;8.716;2022-08-11T16:45:50;4.82;;;1.40;;
25609;SDS011;13479;49.044;8.716;2022-08-11T16:48:35;3.42;;;1.25;;
25609;SDS011;13479;49.044;8.716;2022-08-11T16:51:02;4.13;;;1.52;;
25609;SDS011;13479;49.044;8.716;2022-08-11T16:53:29;4.05;;;1.75;;
25609;SDS011;13479;49.044;8.716;2022-08-11T16:55:55;2.92;;;1.50;;
25609;SDS011;13479;49.044;8.716;2022-08-11T16:58:26;3.80;;;1.45;;
25609;SDS011;13479;49.044;8.716;2022-08-11T17:01:12;6.00;;;1.48;;
25609;SDS011;13479;49.044;8.716;2022-08-11T17:03:42;3.28;;;1.80;;
25609;SDS011;13479;49.044;8.716;2022-08-11T17:06:29;3.40;;;1.20;;
25609;SDS011;13479;49.044;8.716;2022-08-11T17:09:17;4.80;;;1.60;;
25609;SDS011;13479;49.044;8.716;2022-08-11T17:12:16;8.07;;;1.42;;
25609;SDS011;13479;49.044;8.716;2022-08-11T17:15:05;1.80;;;1.00;;
25609;SDS011;13479;49.044;8.716;2022-08-11T17:17:53;6.72;;;1.60;;
25609;SDS011;13479;49.044;8.716;2022-08-11T17:20:20;3.10;;;1.27;;
25609;SDS011;13479;49.044;8.716;2022-08-11T17:22:47;2.10;;;1.23;;
25609;SDS011;13479;49.044;8.716;2022-08-11T17:25:34;4.30;;;1.50;;
25609;SDS011;13479;49.044;8.716;2022-08-11T17:27:59;2.83;;;1.25;;
25609;SDS011;13479;49.044;8.716;2022-08-11T17:30:26;4.40;;;1.58;;
25609;SDS011;13479;49.044;8.716;2022-08-11T17:33:14;2.13;;;1.23;;
25609;SDS011;13479;49.044;8.716;2022-08-11T17:35:58;2.33;;;1.20;;
25609;SDS011;13479;49.044;8.716;2022-08-11T17:38:26;3.83;;;1.50;;
25609;SDS011;13479;49.044;8.716;2022-08-11T17:40:54;5.70;;;1.50;;
25609;SDS011;13479;49.044;8.716;2022-08-11T17:43:41;3.38;;;1.13;;
25609;SDS011;13479;49.044;8.716;2022-08-11T17:46:27;7.85;;;1.40;;
25609;SDS011;13479;49.044;8.716;2022-08-11T17:49:12;3.30;;;1.38;;
25609;SDS011;13479;49.044;8.716;2022-08-11T17:51:39;3.40;;;1.30;;
25609;SDS011;13479;49.044;8.716;2022-08-11T17:54:26;4.18;;;1.30;;
25609;SDS011;13479;49.044;8.716;2022-08-11T17:57:11;1.75;;;1.10;;
25609;SDS011;13479;49.044;8.716;2022-08-11T17:59:56;2.30;;;1.40;;
25609;SDS011;13479;49.044;8.716;2022-08-11T18:05:16;3.67;;;1.35;;
25609;SDS011;13479;49.044;8.716;2022-08-11T18:07:44;2.50;;;1.35;;
25609;SDS011;13479;49.044;8.716;2022-08-11T18:10:31;4.25;;;1.30;;
25609;SDS011;13479;49.044;8.716;2022-08-11T18:13:18;3.50;;;1.50;;
25609;SDS011;13479;49.044;8.716;2022-08-11T18:16:04;3.85;;;1.45;;
25609;SDS011;13479;49.044;8.716;2022-08-11T18:18:49;2.75;;;1.55;;
25609;SDS011;13479;49.044;8.716;2022-08-11T18:21:34;2.90;;;1.38;;
25609;SDS011;13479;49.044;8.716;2022-08-11T18:24:19;3.60;;;1.55;;
25609;SDS011;13479;49.044;8.716;2022-08-11T18:27:06;5.38;;;1.40;;
25609;SDS011;13479;49.044;8.716;2022-08-11T18:29:54;3.80;;;1.30;;